Alconbury RAF, United Kingdom

9:58 PM BST on September 17, 2014 (GMT +0100)
ICAMBSST2 | Change Station
CLOSE
Current Station
Personal Weather Station
Location: St Ives, CAMBS
Elevation: 82 ft
Nearby Weather Stations

Elev 82 ft 52.34 °N, 0.09 °W | Updated 2 minutes ago

Overcast
Overcast
60.4 °F
Feels Like 60.4 °F
N
0.7
Wind Variable Wind from North
Gusts 3.1 mph

Today
High -- | Low -- °F
--% Chance of Precip.
Yesterday
High -- | Low -- °F
Precip. -- in
6:38 AM 7:11 PM
Waning Crescent, 33% visible
Pressure 29.89 in
Visibility 1.1 miles
Clouds Overcast 200 ft
Dew Point 60 °F
Humidity 99%
Rainfall 0.00 in
Snow Depth Not available.
UV 0 out of 12
Pollen Not available.
Air Quality Not available.
Flu Activity Not available.
METAR EGXT 171950Z AUTO 05007KT 1800 BR OVC002/// 16/15 Q1012

More Conditions Fewer Conditions

Pressure 29.89 in
Visibility 1.1 miles
Clouds Overcast 200 ft
Dew Point 60 °F
Humidity 99%
Rainfall 0.00 in
Snow Depth Not available.
UV 0 out of 12
Pollen Not available.
Air Quality Not available.
Flu Activity Not available.
METAR EGXT 171950Z AUTO 05007KT 1800 BR OVC002/// 16/15 Q1012

More Conditions Fewer Conditions

10-Day Weather Forecast

Almanac

Astronomy

Sep. 17, 2014 Rise Set
Actual Time 6:38 AM BST 7:11 PM BST
Civil Twilight 6:03 AM BST 7:45 PM BST
Nautical Twilight 5:23 AM BST 8:26 PM BST
Astronomical Twilight 4:39 AM BST 9:09 PM BST
Moon No Moon Rise 3:42 PM BST
Length of Visible Light 13h 41m
Length of Day
12h 33m
Tomorrow will be 4m 2s shorter.
Waning Crescent, 33% of the Moon is Illuminated
Today
Waning Crescent
Sep 24
New
Oct 1
First Quarter
Oct 8
Full
Oct 15
Last Quarter

Today's Extremes

Country Highs Country Lows

Community

WunderPhotos

Upload Photos

1,754,161 photos uploaded!

WunderBlogs® & News

Nearby

Snow Depth

Not available.

Earthquake Activity

City Distance Mag. Time & Date
No recent earthquake activity has been reported nearby.
Minimum magnitude displayed is 2.5.

Coastal Water Temperatures

Place Temperature
No Stations Reporting

Nearby Weather Stations